Regina International Airport

Airport
ICAO code: 
CYQR
Summary
ICAO Region: 
NAM
Territory: 
Location: 
Regina, Saskatchewan,
Coordinates: 
Aerial View: 
50° 25' 54.998" N, 104° 39' 56.999" W
Airport CFIT: 
Altimeter Temperature Error Correction
Airport GND: 
Aircraft Ground De/Anti Icing
Airport RE: 
Landing on Contaminated Runways
Airport WX: 
Cumulonimbus
Metar
Observation
CYQR 271100Z 32013KT 15SM FEW150 00/M03 A3002 RMK AC2 SLP195
Station
Regina, Sask.
Date/Time
2021-11-27 11:00:00
Wind direction
320°
Wind speed
13 kts
Lowest cloud amount
few clouds
Temperature
0°C
Dew point
-3°C
Humidity
80%
Weather condition
n/a

Description

International airport serving Regina, Saskatchewan.

Climatology

Humid Continental climate (Köppen climate classification Dfb) - Variable weather patterns and a large seasonal temperature variance. Summers are often warm and humid with frequent thunderstorms and winters can be very cold with frequent snowfall and persistent snow cover.

Runways

Designator Length Width Surface Rops
8/26 1890 46 ASP Yes/Yes
13/31 2408 46 ASP Yes/Yes
Airport map: 
Aerial View: 

SKYbrary Partners:

Safety knowledge contributed by: